Time;durP1;ratioP1;P1;durP2;ratioP2;P2;SDS_P1;SDS_P2;PMS_P1;PMS_P2;Temp;Humidity;BMP_temperature;BMP_pressure;BME280_temperature;BME280_humidity;BME280_pressure;Samples;Min_cycle;Max_cycle;Signal;HPM_P1;HPM_P2
2021/09/22 00:00:38;;;;;;;;;;;12.70;99.90;;;;;;5076135;28;19912;-75
2021/09/22 00:03:04;;;;;;;;;;;12.70;99.90;;;;;;5085463;28;19912;-74
2021/09/22 00:05:29;;;;;;;;;;;12.60;99.90;;;;;;5080278;28;19919;-73
2021/09/22 00:07:55;;;;;;;;;;;12.70;99.90;;;;;;5076359;28;19920;-73
2021/09/22 00:10:20;;;;;;;;;;;12.60;99.90;;;;;;5077453;28;19994;-73
2021/09/22 00:12:48;;;;;;;;;;;12.60;99.90;;;;;;5077279;28;19920;-73
2021/09/22 00:15:14;;;;;;;;;;;12.50;99.90;;;;;;5077294;28;19913;-73
2021/09/22 00:17:40;;;;;;;;;;;12.50;99.90;;;;;;5076929;28;19951;-73
2021/09/22 00:20:07;;;;;;;;;;;12.50;99.90;;;;;;5076512;28;19967;-73
2021/09/22 00:22:32;;;;;;;;;;;12.40;99.90;;;;;;5075872;28;19948;-73
2021/09/22 00:24:59;;;;;;;;;;;12.40;99.90;;;;;;5076896;28;19917;-73
2021/09/22 00:27:25;;;;;;;;;;;12.40;99.90;;;;;;5076050;28;19967;-73
2021/09/22 00:29:50;;;;;;;;;;;12.40;99.90;;;;;;5070617;28;19959;-74
2021/09/22 00:32:16;;;;;;;;;;;12.40;99.90;;;;;;5075697;28;20262;-74
2021/09/22 00:34:42;;;;;;;;;;;12.40;99.90;;;;;;5075423;28;19917;-74
2021/09/22 00:37:07;;;;;;;;;;;12.30;99.90;;;;;;5075932;28;19942;-73
2021/09/22 00:39:36;;;;;;;;;;;12.30;99.90;;;;;;5075701;28;19917;-73
2021/09/22 00:42:05;;;;;;;;;;;12.20;99.90;;;;;;5075167;28;19920;-73
2021/09/22 00:44:30;;;;;;;;;;;12.20;99.90;;;;;;5077782;28;19916;-73
2021/09/22 00:46:56;;;;;;;;;;;12.20;99.90;;;;;;5077282;28;19909;-73
2021/09/22 00:49:22;;;;;;;;;;;12.20;99.90;;;;;;5075682;28;19912;-73
2021/09/22 00:51:47;;;;;;;;;;;12.10;99.90;;;;;;5074933;28;19958;-73
2021/09/22 00:54:13;;;;;;;;;;;12.10;99.90;;;;;;5076023;28;19991;-73
2021/09/22 00:56:39;;;;;;;;;;;12.00;99.90;;;;;;5076813;28;20024;-73
2021/09/22 00:59:04;;;;;;;;;;;12.00;99.90;;;;;;5076709;28;19931;-73
2021/09/22 01:01:30;;;;;;;;;;;12.00;99.90;;;;;;5073006;28;20003;-76
2021/09/22 01:03:56;;;;;;;;;;;12.00;99.90;;;;;;5084462;28;19924;-73
2021/09/22 01:06:22;;;;;;;;;;;12.00;99.90;;;;;;5073698;28;20306;-74
2021/09/22 01:08:47;;;;;;;;;;;12.10;99.90;;;;;;5066679;28;19912;-73
2021/09/22 01:11:13;;;;;;;;;;;12.10;99.90;;;;;;5085079;28;19998;-73
2021/09/22 01:13:39;;;;;;;;;;;12.10;99.90;;;;;;5074785;28;19917;-73
2021/09/22 01:16:06;;;;;;;;;;;12.10;99.90;;;;;;5077885;28;19912;-73
2021/09/22 01:18:32;;;;;;;;;;;12.10;99.90;;;;;;5076086;28;19923;-73
2021/09/22 01:20:58;;;;;;;;;;;12.10;99.90;;;;;;5074279;28;20295;-73
2021/09/22 01:23:24;;;;;;;;;;;12.00;99.90;;;;;;5075724;28;19928;-73
2021/09/22 01:25:50;;;;;;;;;;;12.00;99.90;;;;;;5074303;28;19913;-73
2021/09/22 01:28:19;;;;;;;;;;;12.00;99.90;;;;;;5073827;28;19913;-73
2021/09/22 01:30:45;;;;;;;;;;;12.10;99.90;;;;;;5074357;28;19913;-74
2021/09/22 01:33:13;;;;;;;;;;;12.00;99.90;;;;;;5075222;28;20321;-73
2021/09/22 01:35:39;;;;;;;;;;;12.00;99.90;;;;;;5074359;28;19919;-73
2021/09/22 01:38:07;;;;;;;;;;;12.00;99.90;;;;;;5077349;28;19921;-73
2021/09/22 01:40:33;;;;;;;;;;;11.90;99.90;;;;;;5074747;28;20040;-73
2021/09/22 01:42:58;;;;;;;;;;;11.90;99.90;;;;;;5074455;28;20004;-74
2021/09/22 01:45:24;;;;;;;;;;;11.90;99.90;;;;;;5075780;28;19921;-72
2021/09/22 01:47:49;;;;;;;;;;;11.90;99.90;;;;;;5080032;28;20364;-73
2021/09/22 01:50:17;;;;;;;;;;;11.90;99.90;;;;;;5076229;28;19920;-73
2021/09/22 01:52:43;;;;;;;;;;;11.90;99.90;;;;;;5069243;28;20266;-74
2021/09/22 01:55:09;;;;;;;;;;;11.90;99.90;;;;;;5073707;28;19918;-74
2021/09/22 01:57:35;;;;;;;;;;;11.90;99.90;;;;;;5072184;28;19920;-73
2021/09/22 02:00:01;;;;;;;;;;;11.90;99.90;;;;;;5073261;28;19921;-74
2021/09/22 02:02:26;;;;;;;;;;;11.90;99.90;;;;;;5074329;28;19912;-76
2021/09/22 02:04:52;;;;;;;;;;;11.90;99.90;;;;;;5077387;28;19920;-73
2021/09/22 02:07:17;;;;;;;;;;;12.00;99.90;;;;;;5081896;28;20275;-73
2021/09/22 02:09:43;;;;;;;;;;;12.00;99.90;;;;;;5072975;28;19927;-74
2021/09/22 02:12:08;;;;;;;;;;;12.00;99.90;;;;;;5071123;28;19912;-73
2021/09/22 02:14:34;;;;;;;;;;;11.90;99.90;;;;;;5072085;28;19932;-73
2021/09/22 02:17:00;;;;;;;;;;;12.00;99.90;;;;;;5079036;28;19938;-73
2021/09/22 02:19:26;;;;;;;;;;;12.00;99.90;;;;;;5076509;28;19916;-73
2021/09/22 02:21:51;;;;;;;;;;;12.00;99.90;;;;;;5071886;28;19920;-73
2021/09/22 02:24:17;;;;;;;;;;;12.20;99.90;;;;;;5074673;28;19920;-73
2021/09/22 02:26:43;;;;;;;;;;;12.20;99.90;;;;;;5077328;28;20029;-73
2021/09/22 02:29:08;;;;;;;;;;;12.20;99.90;;;;;;5073199;28;20002;-74
2021/09/22 02:31:34;;;;;;;;;;;12.20;99.90;;;;;;5073098;28;20231;-73
2021/09/22 02:34:00;;;;;;;;;;;12.10;99.90;;;;;;5074304;28;19913;-73
2021/09/22 02:36:25;;;;;;;;;;;12.20;99.90;;;;;;5074989;28;19920;-73
2021/09/22 02:38:51;;;;;;;;;;;12.10;99.90;;;;;;5082299;28;20307;-73
2021/09/22 02:41:17;;;;;;;;;;;12.20;99.90;;;;;;5079641;28;20400;-74
2021/09/22 02:43:43;;;;;;;;;;;12.20;99.90;;;;;;5073584;28;19924;-77
2021/09/22 02:46:08;;;;;;;;;;;12.30;99.90;;;;;;5069059;28;20357;-73
2021/09/22 02:48:34;;;;;;;;;;;12.20;99.90;;;;;;5064611;28;19912;-73
2021/09/22 02:50:59;;;;;;;;;;;12.30;99.90;;;;;;5066951;28;19916;-73
2021/09/22 02:53:25;;;;;;;;;;;12.20;99.90;;;;;;5068415;28;19920;-73
2021/09/22 02:55:50;;;;;;;;;;;12.20;99.90;;;;;;5066886;28;19916;-73
2021/09/22 02:58:16;;;;;;;;;;;12.00;99.90;;;;;;5066920;28;20268;-73
2021/09/22 03:00:42;;;;;;;;;;;12.00;99.90;;;;;;5070299;28;19974;-72
2021/09/22 03:03:07;;;;;;;;;;;12.00;99.90;;;;;;5080616;28;19924;-73
2021/09/22 03:05:33;;;;;;;;;;;12.00;99.90;;;;;;5069411;28;20330;-72
2021/09/22 03:07:58;;;;;;;;;;;12.00;99.90;;;;;;5063944;28;20350;-72
2021/09/22 03:10:24;;;;;;;;;;;11.90;99.90;;;;;;5073237;28;19917;-73
2021/09/22 03:12:52;;;;;;;;;;;11.90;99.90;;;;;;5071511;28;19919;-73
2021/09/22 03:15:18;;;;;;;;;;;11.90;99.90;;;;;;5081926;28;20327;-73
2021/09/22 03:17:43;;;;;;;;;;;11.90;99.90;;;;;;5070444;28;19999;-73
2021/09/22 03:20:09;;;;;;;;;;;11.90;99.90;;;;;;5075929;28;20410;-73
2021/09/22 03:22:35;;;;;;;;;;;11.90;99.90;;;;;;5073125;28;19924;-73
2021/09/22 03:25:01;;;;;;;;;;;11.90;99.90;;;;;;5071308;28;19924;-73
2021/09/22 03:27:26;;;;;;;;;;;12.00;99.90;;;;;;5078040;28;19938;-73
2021/09/22 03:29:52;;;;;;;;;;;11.90;99.90;;;;;;5076511;28;20235;-74
2021/09/22 03:32:17;;;;;;;;;;;11.90;99.90;;;;;;5064197;28;19994;-72
2021/09/22 03:34:43;;;;;;;;;;;11.90;99.90;;;;;;5072475;28;19912;-73
2021/09/22 03:37:09;;;;;;;;;;;11.90;99.90;;;;;;5069846;28;20358;-73
2021/09/22 03:39:34;;;;;;;;;;;11.90;99.90;;;;;;5080350;28;20365;-73
2021/09/22 03:42:00;;;;;;;;;;;12.00;99.90;;;;;;5075654;28;19963;-73
2021/09/22 03:44:26;;;;;;;;;;;12.00;99.90;;;;;;5076673;28;19917;-73
2021/09/22 03:46:53;;;;;;;;;;;12.00;99.90;;;;;;5071068;28;20014;-73
2021/09/22 03:49:19;;;;;;;;;;;11.90;99.90;;;;;;5073106;28;19955;-73
2021/09/22 03:51:45;;;;;;;;;;;11.90;99.90;;;;;;5074460;28;19966;-73
2021/09/22 03:54:10;;;;;;;;;;;11.90;99.90;;;;;;5076679;28;20226;-73
2021/09/22 03:56:36;;;;;;;;;;;11.90;99.90;;;;;;5076545;28;19912;-73
2021/09/22 03:59:02;;;;;;;;;;;11.90;99.90;;;;;;5074388;28;19916;-73
2021/09/22 04:01:28;;;;;;;;;;;11.90;99.90;;;;;;5073613;28;19963;-73
2021/09/22 04:03:53;;;;;;;;;;;11.90;99.90;;;;;;5072674;28;19960;-73
2021/09/22 04:06:19;;;;;;;;;;;11.80;99.90;;;;;;5076932;28;19913;-73
2021/09/22 04:08:44;;;;;;;;;;;11.80;99.90;;;;;;5073536;28;19923;-73
2021/09/22 04:11:10;;;;;;;;;;;11.80;99.90;;;;;;5073960;28;19919;-73
2021/09/22 04:13:35;;;;;;;;;;;11.80;99.90;;;;;;5086307;28;19916;-73
2021/09/22 04:16:01;;;;;;;;;;;11.80;99.90;;;;;;5072959;28;19940;-73
2021/09/22 04:18:27;;;;;;;;;;;11.90;99.90;;;;;;5079914;28;20329;-74
2021/09/22 04:20:52;;;;;;;;;;;11.90;99.90;;;;;;5074826;28;19952;-73
2021/09/22 04:23:18;;;;;;;;;;;12.00;99.90;;;;;;5076075;28;19924;-73
2021/09/22 04:25:43;;;;;;;;;;;12.00;99.90;;;;;;5074875;28;19920;-73
2021/09/22 04:28:09;;;;;;;;;;;11.90;99.90;;;;;;5075920;28;19962;-73
2021/09/22 04:30:35;;;;;;;;;;;11.90;99.90;;;;;;5114179;27;20543;-72
2021/09/22 04:33:02;;;;;;;;;;;11.90;99.90;;;;;;5068115;28;19920;-73
2021/09/22 04:35:28;;;;;;;;;;;11.90;99.90;;;;;;5069278;28;19912;-74
2021/09/22 04:37:54;;;;;;;;;;;11.90;99.90;;;;;;5070951;28;19939;-73
2021/09/22 04:40:19;;;;;;;;;;;11.90;99.90;;;;;;5074276;28;19912;-73
2021/09/22 04:42:45;;;;;;;;;;;11.90;99.90;;;;;;5074586;28;19962;-72
2021/09/22 04:45:11;;;;;;;;;;;11.90;99.90;;;;;;5073557;28;20011;-73
2021/09/22 04:47:37;;;;;;;;;;;11.90;99.90;;;;;;5072918;28;20289;-73
2021/09/22 04:50:06;;;;;;;;;;;11.90;99.90;;;;;;5076172;28;20030;-72
2021/09/22 04:52:32;;;;;;;;;;;11.90;99.90;;;;;;5074366;28;20388;-73
2021/09/22 04:54:58;;;;;;;;;;;11.90;99.90;;;;;;5080859;28;19952;-73
2021/09/22 04:57:23;;;;;;;;;;;11.90;99.90;;;;;;5083163;28;20565;-73
2021/09/22 04:59:49;;;;;;;;;;;11.90;99.90;;;;;;5079360;28;20012;-73
2021/09/22 05:02:14;;;;;;;;;;;11.90;99.90;;;;;;5082543;28;19920;-73
2021/09/22 05:04:40;;;;;;;;;;;11.90;99.90;;;;;;5086665;28;19923;-73
2021/09/22 05:07:06;;;;;;;;;;;11.80;99.90;;;;;;5100534;28;19917;-73
2021/09/22 05:09:32;;;;;;;;;;;11.80;99.90;;;;;;5085669;28;19916;-73
2021/09/22 05:11:59;;;;;;;;;;;11.80;99.90;;;;;;5084159;28;20323;-72
2021/09/22 05:14:25;;;;;;;;;;;11.80;99.90;;;;;;5085118;28;19920;-74
2021/09/22 05:16:51;;;;;;;;;;;11.80;99.90;;;;;;5085857;28;19919;-72
2021/09/22 05:19:16;;;;;;;;;;;11.80;99.90;;;;;;5082316;28;20016;-73
2021/09/22 05:21:42;;;;;;;;;;;11.80;99.90;;;;;;5082910;28;20303;-72
2021/09/22 05:24:07;;;;;;;;;;;11.80;99.90;;;;;;5080335;28;19928;-73
2021/09/22 05:26:33;;;;;;;;;;;11.80;99.90;;;;;;5073773;28;19934;-72
2021/09/22 05:28:59;;;;;;;;;;;11.80;99.90;;;;;;5078546;28;19913;-73
2021/09/22 05:31:25;;;;;;;;;;;11.80;99.90;;;;;;5076020;28;19915;-73
2021/09/22 05:33:50;;;;;;;;;;;11.80;99.90;;;;;;5071390;28;20258;-73
2021/09/22 05:36:16;;;;;;;;;;;11.80;99.90;;;;;;5068750;28;19913;-73
2021/09/22 05:38:41;;;;;;;;;;;11.80;99.90;;;;;;5068067;28;20013;-73
2021/09/22 05:41:07;;;;;;;;;;;11.80;99.90;;;;;;5069097;28;20304;-73
2021/09/22 05:43:32;;;;;;;;;;;11.80;99.90;;;;;;5068367;28;19912;-73
2021/09/22 05:45:58;;;;;;;;;;;11.80;99.90;;;;;;5070510;28;19916;-73
2021/09/22 05:48:24;;;;;;;;;;;11.90;99.90;;;;;;5082680;28;19913;-73
2021/09/22 05:50:49;;;;;;;;;;;11.90;99.90;;;;;;5062340;28;19912;-73
2021/09/22 05:53:15;;;;;;;;;;;11.90;99.90;;;;;;5066818;28;19921;-72
2021/09/22 05:55:40;;;;;;;;;;;11.90;99.90;;;;;;5069978;28;19920;-73
2021/09/22 05:58:06;;;;;;;;;;;11.90;99.90;;;;;;5070169;28;19923;-73
2021/09/22 06:00:31;;;;;;;;;;;12.00;99.90;;;;;;5072469;28;19922;-73
2021/09/22 06:02:57;;;;;;;;;;;12.00;99.90;;;;;;5071495;28;19920;-73
2021/09/22 06:05:22;;;;;;;;;;;12.10;99.90;;;;;;5074106;28;19927;-73
2021/09/22 06:07:48;;;;;;;;;;;12.20;99.90;;;;;;5078091;28;19916;-73
2021/09/22 06:10:14;;;;;;;;;;;12.20;99.90;;;;;;5070831;28;20010;-73
2021/09/22 06:12:39;;;;;;;;;;;12.20;99.90;;;;;;5070800;28;19920;-73
2021/09/22 06:15:05;;;;;;;;;;;12.20;99.90;;;;;;5073055;28;19917;-73
2021/09/22 06:17:31;;;;;;;;;;;12.20;99.90;;;;;;5065850;28;19924;-73
2021/09/22 06:19:56;;;;;;;;;;;12.20;99.90;;;;;;5066958;28;19927;-73
2021/09/22 06:22:25;;;;;;;;;;;12.20;99.90;;;;;;5069447;28;19924;-73
2021/09/22 06:24:51;;;;;;;;;;;12.30;99.90;;;;;;5066033;28;19925;-73
2021/09/22 06:27:16;;;;;;;;;;;12.30;99.90;;;;;;5108401;27;19920;-72
2021/09/22 06:29:42;;;;;;;;;;;12.40;99.90;;;;;;5070876;28;19978;-73
2021/09/22 06:32:07;;;;;;;;;;;12.40;99.90;;;;;;5065874;28;19913;-73
2021/09/22 06:34:33;;;;;;;;;;;12.40;99.90;;;;;;5072123;28;19921;-73
2021/09/22 06:36:59;;;;;;;;;;;12.40;99.90;;;;;;5071620;28;20365;-73
2021/09/22 06:39:24;;;;;;;;;;;12.50;99.90;;;;;;5075257;28;19908;-73
2021/09/22 06:41:50;;;;;;;;;;;12.50;99.90;;;;;;5080133;28;20002;-73
2021/09/22 06:44:16;;;;;;;;;;;12.50;99.90;;;;;;5077711;28;19927;-73
2021/09/22 06:46:44;;;;;;;;;;;12.50;99.90;;;;;;5075105;28;19912;-73
2021/09/22 06:49:11;;;;;;;;;;;12.60;99.90;;;;;;5073119;28;19952;-73
2021/09/22 06:51:37;;;;;;;;;;;12.60;99.90;;;;;;5072724;28;20023;-73
2021/09/22 06:54:02;;;;;;;;;;;12.70;99.90;;;;;;5073447;28;20010;-73
2021/09/22 06:56:28;;;;;;;;;;;12.80;99.90;;;;;;5070004;28;20368;-73
2021/09/22 06:58:53;;;;;;;;;;;12.90;99.90;;;;;;5070765;28;20390;-73
2021/09/22 07:01:19;;;;;;;;;;;13.10;99.90;;;;;;5072527;28;19920;-74
2021/09/22 07:03:45;;;;;;;;;;;13.40;99.90;;;;;;5067003;28;20007;-73
2021/09/22 07:06:12;;;;;;;;;;;13.80;99.90;;;;;;5067890;28;19951;-73
2021/09/22 07:08:38;;;;;;;;;;;14.30;99.90;;;;;;5101535;28;19966;-73
2021/09/22 07:11:06;;;;;;;;;;;14.70;99.90;;;;;;5067375;28;19920;-73
2021/09/22 07:13:37;;;;;;;;;;;15.00;99.90;;;;;;5068360;28;20375;-74
2021/09/22 07:16:04;;;;;;;;;;;15.20;99.90;;;;;;5073051;28;20016;-73
2021/09/22 07:18:29;;;;;;;;;;;15.20;99.90;;;;;;5070645;28;20023;-75
2021/09/22 07:20:55;;;;;;;;;;;15.30;99.90;;;;;;5073956;28;20015;-73
2021/09/22 07:23:20;;;;;;;;;;;15.40;99.90;;;;;;5073490;28;19936;-73
2021/09/22 07:25:46;;;;;;;;;;;15.60;99.90;;;;;;5102065;28;19913;-74
2021/09/22 07:28:12;;;;;;;;;;;15.80;99.90;;;;;;5071549;28;19924;-73
2021/09/22 07:30:38;;;;;;;;;;;16.00;99.90;;;;;;5073434;28;19917;-73
2021/09/22 07:33:05;;;;;;;;;;;16.20;99.90;;;;;;5069421;28;19916;-74
2021/09/22 07:35:33;;;;;;;;;;;16.50;99.90;;;;;;5066609;28;19916;-77
2021/09/22 07:37:59;;;;;;;;;;;16.70;99.90;;;;;;5070741;28;21168;-74
2021/09/22 07:40:24;;;;;;;;;;;16.70;99.90;;;;;;5077626;28;19912;-73
2021/09/22 07:42:50;;;;;;;;;;;16.70;99.90;;;;;;5075835;28;19919;-74
2021/09/22 07:45:16;;;;;;;;;;;16.80;99.90;;;;;;5074129;28;19916;-74
2021/09/22 07:47:42;;;;;;;;;;;16.80;99.90;;;;;;5071126;28;20188;-73
2021/09/22 07:50:10;;;;;;;;;;;16.90;99.90;;;;;;5064696;28;19912;-74
2021/09/22 07:52:37;;;;;;;;;;;17.10;99.90;;;;;;5073103;28;20011;-74
2021/09/22 07:55:06;;;;;;;;;;;17.20;99.90;;;;;;5070143;28;19917;-74
2021/09/22 07:57:32;;;;;;;;;;;17.40;99.90;;;;;;5064169;28;19922;-74
2021/09/22 07:59:57;;;;;;;;;;;17.60;99.90;;;;;;5074635;28;19912;-74
2021/09/22 08:02:23;;;;;;;;;;;17.60;99.90;;;;;;5072058;28;20193;-75
2021/09/22 08:04:49;;;;;;;;;;;17.50;99.90;;;;;;5086730;28;19969;-74
2021/09/22 08:07:15;;;;;;;;;;;17.50;99.90;;;;;;5069291;28;19970;-76
2021/09/22 08:09:41;;;;;;;;;;;17.60;99.90;;;;;;5071989;28;19958;-73
2021/09/22 08:12:07;;;;;;;;;;;17.80;99.90;;;;;;5072350;28;20047;-74
2021/09/22 08:14:34;;;;;;;;;;;17.90;99.90;;;;;;5077850;28;20007;-74
2021/09/22 08:17:00;;;;;;;;;;;17.80;99.90;;;;;;5109108;28;19920;-74
2021/09/22 08:19:26;;;;;;;;;;;17.60;99.90;;;;;;5076801;28;19958;-74
2021/09/22 08:21:52;;;;;;;;;;;17.30;99.90;;;;;;5076000;28;19952;-74
2021/09/22 08:24:18;;;;;;;;;;;17.20;99.90;;;;;;5076997;28;20341;-74
2021/09/22 08:26:43;;;;;;;;;;;17.20;99.90;;;;;;5075625;28;19913;-75
2021/09/22 08:29:09;;;;;;;;;;;17.20;99.90;;;;;;5072403;28;19908;-76
2021/09/22 08:31:35;;;;;;;;;;;17.30;99.90;;;;;;5080126;28;19912;-75
2021/09/22 08:34:00;;;;;;;;;;;17.50;99.90;;;;;;5079427;28;20185;-74
2021/09/22 08:36:26;;;;;;;;;;;17.60;99.90;;;;;;5076147;28;19913;-74
2021/09/22 08:38:52;;;;;;;;;;;17.90;99.90;;;;;;5072573;28;19917;-75
2021/09/22 08:41:21;;;;;;;;;;;18.10;99.90;;;;;;5079610;28;19923;-74
2021/09/22 08:43:46;;;;;;;;;;;18.30;99.90;;;;;;5076012;28;19916;-75
2021/09/22 08:46:13;;;;;;;;;;;18.60;99.90;;;;;;5075645;28;19913;-77
2021/09/22 08:48:40;;;;;;;;;;;18.80;99.90;;;;;;5073341;28;19916;-77
2021/09/22 08:51:05;;;;;;;;;;;19.10;99.90;;;;;;5074740;28;19920;-77
2021/09/22 08:53:31;;;;;;;;;;;19.30;99.90;;;;;;5068491;28;19920;-75
2021/09/22 08:55:56;;;;;;;;;;;19.30;99.90;;;;;;5068304;28;19916;-77
2021/09/22 08:58:22;;;;;;;;;;;19.20;99.90;;;;;;5070825;28;19920;-77
2021/09/22 09:00:48;;;;;;;;;;;19.10;99.90;;;;;;5073966;28;19912;-76
2021/09/22 09:03:33;;;;;;;;;;;19.00;99.90;;;;;;5072952;28;19940;-74
2021/09/22 09:06:17;;;;;;;;;;;19.00;99.90;;;;;;5069040;28;19916;-76
2021/09/22 09:08:43;;;;;;;;;;;19.00;99.90;;;;;;5070284;28;20286;-78
2021/09/22 09:11:09;;;;;;;;;;;19.00;99.90;;;;;;5069960;28;19919;-78
2021/09/22 09:14:03;;;;;;;;;;;19.10;99.90;;;;;;5067335;28;19937;-76
2021/09/22 09:16:39;;;;;;;;;;;19.20;99.90;;;;;;5017640;28;19914;-77
2021/09/22 09:19:13;;;;;;;;;;;19.30;99.90;;;;;;5033490;28;19953;-78
2021/09/22 09:21:57;;;;;;;;;;;19.50;99.90;;;;;;5029838;28;20295;-78
2021/09/22 09:24:33;;;;;;;;;;;19.70;99.90;;;;;;5027998;28;19921;-77
2021/09/22 09:27:00;;;;;;;;;;;19.90;99.90;;;;;;5031087;28;19913;-78
2021/09/22 09:29:25;;;;;;;;;;;20.10;99.90;;;;;;5028654;28;20003;-78
2021/09/22 09:32:08;;;;;;;;;;;20.30;99.90;;;;;;5017351;28;20003;-78
2021/09/22 09:34:33;;;;;;;;;;;20.50;99.90;;;;;;5006102;28;19921;-77
2021/09/22 09:36:59;;;;;;;;;;;20.80;99.90;;;;;;5023265;28;19924;-78
2021/09/22 09:39:25;;;;;;;;;;;20.80;99.90;;;;;;5025053;28;20391;-78
2021/09/22 09:41:51;;;;;;;;;;;20.90;99.90;;;;;;5027482;28;20015;-76
2021/09/22 09:44:21;;;;;;;;;;;20.90;99.90;;;;;;5029937;28;19925;-76
2021/09/22 09:46:50;;;;;;;;;;;20.90;99.90;;;;;;5006535;28;20303;-78
2021/09/22 09:49:18;;;;;;;;;;;20.90;99.90;;;;;;5027199;28;19917;-76
2021/09/22 09:51:46;;;;;;;;;;;21.00;99.90;;;;;;5027619;28;19913;-78
2021/09/22 09:54:13;;;;;;;;;;;21.10;99.90;;;;;;5065824;28;19913;-76
2021/09/22 09:56:39;;;;;;;;;;;21.20;99.90;;;;;;5066092;28;19909;-78
2021/09/22 09:59:05;;;;;;;;;;;21.20;99.90;;;;;;5070502;28;20296;-78
2021/09/22 10:01:43;;;;;;;;;;;21.20;99.90;;;;;;5064050;28;19912;-79
2021/09/22 10:04:10;;;;;;;;;;;21.30;99.90;;;;;;5074363;28;19996;-78
2021/09/22 10:06:36;;;;;;;;;;;21.20;99.90;;;;;;5089755;28;19917;-76
2021/09/22 10:09:02;;;;;;;;;;;21.10;99.90;;;;;;5066164;28;19920;-78
2021/09/22 10:11:28;;;;;;;;;;;21.10;99.90;;;;;;5074611;28;19917;-78
2021/09/22 10:13:54;;;;;;;;;;;21.00;99.90;;;;;;5068649;28;19962;-78
2021/09/22 10:16:20;;;;;;;;;;;21.10;99.90;;;;;;5058564;28;19927;-78
2021/09/22 10:18:50;;;;;;;;;;;21.00;99.90;;;;;;5073676;28;19917;-76
2021/09/22 10:21:20;;;;;;;;;;;21.00;99.90;;;;;;5081964;28;20325;-77
2021/09/22 10:23:49;;;;;;;;;;;21.20;99.90;;;;;;5081592;28;19928;-79
2021/09/22 10:26:16;;;;;;;;;;;21.10;99.90;;;;;;5081029;28;19916;-79
2021/09/22 10:28:43;;;;;;;;;;;21.20;99.90;;;;;;5076912;28;20007;-77
2021/09/22 10:31:16;;;;;;;;;;;21.30;99.90;;;;;;5071817;28;19927;-78
2021/09/22 10:33:45;;;;;;;;;;;21.20;99.90;;;;;;5069994;28;20311;-78
2021/09/22 10:36:11;;;;;;;;;;;21.20;99.90;;;;;;5071628;28;19920;-78
2021/09/22 10:38:39;;;;;;;;;;;21.20;99.90;;;;;;5074966;28;19917;-79
2021/09/22 10:41:05;;;;;;;;;;;21.30;99.90;;;;;;5071264;28;19916;-76
2021/09/22 10:43:39;;;;;;;;;;;21.40;99.90;;;;;;5069542;28;20219;-78
2021/09/22 10:46:08;;;;;;;;;;;21.60;99.90;;;;;;5085371;28;19958;-78
2021/09/22 10:48:35;;;;;;;;;;;21.70;99.90;;;;;;5079449;28;19943;-78
2021/09/22 10:51:05;;;;;;;;;;;21.80;99.90;;;;;;5066854;28;19913;-79
2021/09/22 10:53:33;;;;;;;;;;;21.90;99.90;;;;;;5071184;28;19954;-77
2021/09/22 10:56:05;;;;;;;;;;;21.90;99.90;;;;;;5072464;28;19917;-78
2021/09/22 10:58:41;;;;;;;;;;;21.80;99.90;;;;;;5079924;28;22260;-77
2021/09/22 11:01:08;;;;;;;;;;;21.90;99.90;;;;;;5066488;28;19923;-78
2021/09/22 11:03:50;;;;;;;;;;;22.00;99.90;;;;;;5083445;28;19916;-79
2021/09/22 11:06:54;;;;;;;;;;;22.10;99.90;;;;;;5081637;28;20149;-78
2021/09/22 11:09:25;;;;;;;;;;;22.20;99.90;;;;;;5030271;28;19924;-79
2021/09/22 11:11:58;;;;;;;;;;;22.20;99.90;;;;;;5020146;28;19921;-79
2021/09/22 11:14:26;;;;;;;;;;;22.20;99.90;;;;;;5019052;28;19921;-78
2021/09/22 11:16:56;;;;;;;;;;;22.20;99.90;;;;;;5008443;28;19924;-75
2021/09/22 11:19:21;;;;;;;;;;;22.10;99.90;;;;;;5023716;28;19940;-77
2021/09/22 11:21:50;;;;;;;;;;;22.20;99.90;;;;;;5025587;28;20305;-74
2021/09/22 11:24:18;;;;;;;;;;;22.20;99.90;;;;;;5028569;28;20015;-76
2021/09/22 11:26:48;;;;;;;;;;;22.20;99.90;;;;;;5028767;28;20617;-77
2021/09/22 11:29:26;;;;;;;;;;;22.20;99.90;;;;;;5027209;28;19913;-78
2021/09/22 11:31:52;;;;;;;;;;;22.10;99.90;;;;;;5029226;28;20016;-78
2021/09/22 11:34:23;;;;;;;;;;;22.10;99.90;;;;;;5028902;28;19996;-79
2021/09/22 11:37:08;;;;;;;;;;;22.00;99.90;;;;;;5021642;28;19917;-79
2021/09/22 11:39:34;;;;;;;;;;;22.00;99.90;;;;;;5028964;28;19920;-78
2021/09/22 11:42:00;;;;;;;;;;;21.90;99.90;;;;;;5027657;28;19994;-78
2021/09/22 11:44:29;;;;;;;;;;;21.90;99.90;;;;;;5029273;28;20312;-76
2021/09/22 11:46:58;;;;;;;;;;;22.00;99.90;;;;;;5031391;28;19928;-76
2021/09/22 11:49:30;;;;;;;;;;;22.00;99.90;;;;;;5027912;28;19936;-77
2021/09/22 11:52:06;;;;;;;;;;;22.00;99.90;;;;;;5032696;28;19921;-78
2021/09/22 11:54:34;;;;;;;;;;;22.10;99.90;;;;;;5029135;28;19921;-76
2021/09/22 11:57:01;;;;;;;;;;;22.10;99.90;;;;;;5030820;28;19936;-78
2021/09/22 11:59:33;;;;;;;;;;;22.00;99.90;;;;;;5029611;28;19921;-75
2021/09/22 12:02:00;;;;;;;;;;;22.00;99.90;;;;;;5027245;28;19972;-75
2021/09/22 12:04:34;;;;;;;;;;;22.10;99.90;;;;;;5063329;28;20008;-76
2021/09/22 12:06:59;;;;;;;;;;;22.10;99.90;;;;;;5030916;28;19917;-75
2021/09/22 12:09:25;;;;;;;;;;;22.20;99.90;;;;;;5027581;28;19978;-75
2021/09/22 12:12:04;;;;;;;;;;;22.30;99.90;;;;;;5028295;28;19913;-78
2021/09/22 12:14:30;;;;;;;;;;;22.30;99.90;;;;;;5031052;28;20263;-76
2021/09/22 12:17:07;;;;;;;;;;;22.30;99.90;;;;;;5032249;28;19921;-76
2021/09/22 12:19:33;;;;;;;;;;;22.40;99.90;;;;;;5031097;28;19921;-75
2021/09/22 12:21:59;;;;;;;;;;;22.40;99.90;;;;;;5046223;28;20324;-76
2021/09/22 12:24:25;;;;;;;;;;;22.50;99.90;;;;;;5086442;28;19920;-76
2021/09/22 12:26:52;;;;;;;;;;;22.50;99.90;;;;;;5081362;28;19916;-75
2021/09/22 12:29:19;;;;;;;;;;;22.50;99.90;;;;;;5076722;28;20307;-75
2021/09/22 12:31:45;;;;;;;;;;;22.60;99.90;;;;;;5074991;28;19995;-76
2021/09/22 12:34:18;;;;;;;;;;;22.60;99.90;;;;;;5077347;28;20015;-77
2021/09/22 12:36:44;;;;;;;;;;;22.40;99.90;;;;;;5082020;28;20412;-76
2021/09/22 12:39:13;;;;;;;;;;;22.40;99.90;;;;;;5083873;28;20245;-75
2021/09/22 12:41:55;;;;;;;;;;;22.50;99.90;;;;;;5077659;28;19959;-75
2021/09/22 12:44:21;;;;;;;;;;;22.50;99.90;;;;;;5069273;28;19998;-75
2021/09/22 12:46:47;;;;;;;;;;;22.40;99.90;;;;;;5067907;28;20285;-75
2021/09/22 12:49:14;;;;;;;;;;;22.20;99.90;;;;;;5069592;28;19923;-76
2021/09/22 12:51:50;;;;;;;;;;;22.10;99.90;;;;;;5071477;28;19946;-75
2021/09/22 12:54:16;;;;;;;;;;;22.10;99.90;;;;;;5073545;28;19986;-76
2021/09/22 12:56:42;;;;;;;;;;;22.10;99.90;;;;;;5075890;28;20332;-77
2021/09/22 12:59:34;;;;;;;;;;;22.10;99.90;;;;;;5072021;28;19931;-76
2021/09/22 13:02:00;;;;;;;;;;;22.10;99.90;;;;;;5071316;28;19916;-77
2021/09/22 13:04:26;;;;;;;;;;;22.20;99.90;;;;;;5069357;28;19966;-76
2021/09/22 13:06:56;;;;;;;;;;;22.20;99.90;;;;;;5082333;28;20007;-76
2021/09/22 13:09:35;;;;;;;;;;;22.40;99.90;;;;;;5079152;28;19952;-76
2021/09/22 13:12:00;;;;;;;;;;;22.40;99.90;;;;;;5085696;28;19912;-76
2021/09/22 13:14:34;;;;;;;;;;;22.40;99.90;;;;;;5085410;28;19919;-76
2021/09/22 13:17:00;;;;;;;;;;;22.40;99.90;;;;;;5076983;28;20137;-76
2021/09/22 13:19:27;;;;;;;;;;;22.40;99.90;;;;;;5078277;28;20315;-76
2021/09/22 13:21:53;;;;;;;;;;;22.50;99.90;;;;;;5079484;28;19946;-75
2021/09/22 13:24:20;;;;;;;;;;;22.30;99.90;;;;;;5082255;28;19917;-76
2021/09/22 13:26:46;;;;;;;;;;;22.20;99.90;;;;;;5082418;28;20290;-76
2021/09/22 13:29:13;;;;;;;;;;;22.10;99.90;;;;;;5082315;28;20219;-77
2021/09/22 13:31:40;;;;;;;;;;;22.10;99.90;;;;;;5084520;28;19913;-75
2021/09/22 13:34:06;;;;;;;;;;;22.20;99.90;;;;;;5087390;28;19999;-76
2021/09/22 13:36:32;;;;;;;;;;;22.20;99.90;;;;;;5081801;28;19951;-75
2021/09/22 13:39:00;;;;;;;;;;;22.10;99.90;;;;;;5077659;28;20290;-75
2021/09/22 13:41:27;;;;;;;;;;;22.10;99.90;;;;;;5081741;28;19961;-76
2021/09/22 13:43:53;;;;;;;;;;;22.10;99.90;;;;;;5084314;28;19920;-75
2021/09/22 13:46:19;;;;;;;;;;;22.10;99.90;;;;;;5078567;28;20195;-75
2021/09/22 13:48:45;;;;;;;;;;;22.20;99.90;;;;;;5080999;28;19938;-75
2021/09/22 13:51:11;;;;;;;;;;;22.20;99.90;;;;;;5076848;28;19912;-75
2021/09/22 13:53:36;;;;;;;;;;;22.20;99.90;;;;;;5096641;28;19912;-75
2021/09/22 13:56:02;;;;;;;;;;;22.20;99.90;;;;;;5081648;28;19916;-76
2021/09/22 13:58:28;;;;;;;;;;;22.10;99.90;;;;;;5078540;28;19994;-75
2021/09/22 14:00:55;;;;;;;;;;;22.10;99.90;;;;;;5082351;28;19916;-76
2021/09/22 14:03:22;;;;;;;;;;;22.00;99.90;;;;;;5079770;28;20015;-76
2021/09/22 14:05:47;;;;;;;;;;;22.00;99.90;;;;;;5085001;28;20269;-77
2021/09/22 14:08:14;;;;;;;;;;;22.00;99.90;;;;;;5082526;28;19916;-75
2021/09/22 14:10:41;;;;;;;;;;;22.00;99.90;;;;;;5083154;28;19943;-75
2021/09/22 14:13:06;;;;;;;;;;;21.90;99.90;;;;;;5080565;28;20306;-75
2021/09/22 14:15:34;;;;;;;;;;;21.90;99.90;;;;;;5083079;28;19916;-76